Weather

BOSCOMBE DOWN (EGDM)

METAR

EGDM 272250Z AUTO 07003KT 9999 NCD 13/10 Q1035

TAF

TAF EGDM 211948Z 2121/2212 23015G25KT 9999 BKN020 TEMPO 2121/2201 BKN012 BECMG 2201/2203 BKN010 PROB30 TEMPO 2201/2208 24020G35KT PROB40 TEMPO 2202/2210 3000 -RADZ BKN006 BECMG 2209/2211 SCT025 TEMPO 2211/2212 SCT015

BRISTOL AIRPORT (EGGD)

METAR

EGGD 272250Z AUTO 05009KT 9999 NCD 18/07 Q1034

TAF

TAF EGGD 271700Z 2718/2818 04005KT 9999 FEW045 PROB30 2800/2807 8000 BECMG 2813/2816 10010KT

BRIZE NORTON (EGVN)

METAR

EGVN 272250Z 06008KT CAVOK 15/10 Q1035 NOSIG RMK BLU BLU

TAF

TAF EGVN 271930Z 2721/2821 06006KT CAVOK

OXFORD (EGTK)

METAR

EGTK 271750Z 36006KT CAVOK 23/09 Q1034

Pressure charts

Click to see pressure charts
(redidrection to MetOffice website)